Time;durP1;ratioP1;P1;durP2;ratioP2;P2;SDS_P1;SDS_P2;PMS_P1;PMS_P2;Temp;Humidity;BMP_temperature;BMP_pressure;BME280_temperature;BME280_humidity;BME280_pressure;Samples;Min_cycle;Max_cycle;Signal;HPM_P1;HPM_P2
2023/02/12 00:01:13;;;;;;;;;43.00;36.00;;;;;;;;5050632;28;9757;-66
2023/02/12 00:03:39;;;;;;;;;42.00;35.00;;;;;;;;5050498;28;8817;-67
2023/02/12 00:06:04;;;;;;;;;33.75;29.25;;;;;;;;5050395;28;8912;-65
2023/02/12 00:08:29;;;;;;;;;38.00;36.25;;;;;;;;5050157;28;8837;-65
2023/02/12 00:10:55;;;;;;;;;47.50;44.00;;;;;;;;5050068;28;8781;-66
2023/02/12 00:13:20;;;;;;;;;44.25;41.25;;;;;;;;5050457;28;8828;-66
2023/02/12 00:15:45;;;;;;;;;39.00;34.00;;;;;;;;5049795;28;8833;-67
2023/02/12 00:18:11;;;;;;;;;49.00;42.50;;;;;;;;5050210;28;8785;-66
2023/02/12 00:20:36;;;;;;;;;75.25;59.50;;;;;;;;5049951;28;8799;-67
2023/02/12 00:23:02;;;;;;;;;80.75;65.50;;;;;;;;5050010;28;8800;-66
2023/02/12 00:25:27;;;;;;;;;56.00;51.50;;;;;;;;5050168;28;9619;-66
2023/02/12 00:27:52;;;;;;;;;71.00;58.00;;;;;;;;5049634;28;8817;-67
2023/02/12 00:30:18;;;;;;;;;57.00;49.50;;;;;;;;5049957;28;8785;-67
2023/02/12 00:32:46;;;;;;;;;58.75;48.00;;;;;;;;5049766;28;9562;-67
2023/02/12 00:35:11;;;;;;;;;54.75;46.75;;;;;;;;5049613;28;8906;-67
2023/02/12 00:37:37;;;;;;;;;50.00;46.75;;;;;;;;5048197;28;8967;-67
2023/02/12 00:40:02;;;;;;;;;64.50;51.50;;;;;;;;5049652;28;8821;-67
2023/02/12 00:42:27;;;;;;;;;57.50;48.25;;;;;;;;5049412;28;8797;-68
2023/02/12 00:44:52;;;;;;;;;52.25;45.75;;;;;;;;5051049;28;8801;-67
2023/02/12 00:47:18;;;;;;;;;51.75;47.50;;;;;;;;5049726;28;8812;-66
2023/02/12 00:49:43;;;;;;;;;55.75;49.75;;;;;;;;5049227;28;8813;-67
2023/02/12 00:52:08;;;;;;;;;46.25;41.25;;;;;;;;5049460;28;8816;-66
2023/02/12 00:54:33;;;;;;;;;32.50;30.75;;;;;;;;5049241;28;8828;-67
2023/02/12 00:56:59;;;;;;;;;46.00;39.50;;;;;;;;5049302;28;9541;-67
2023/02/12 00:59:25;;;;;;;;;44.00;42.00;;;;;;;;5049341;28;8815;-67
2023/02/12 01:01:51;;;;;;;;;47.00;40.00;;;;;;;;5049415;28;8803;-66
2023/02/12 01:04:16;;;;;;;;;53.25;42.50;;;;;;;;5049671;28;9503;-66
2023/02/12 01:06:42;;;;;;;;;43.00;39.50;;;;;;;;5049532;28;8827;-66
2023/02/12 01:09:07;;;;;;;;;32.75;29.00;;;;;;;;5049339;28;8793;-67
2023/02/12 01:11:32;;;;;;;;;43.50;39.50;;;;;;;;5049241;28;8851;-67
2023/02/12 01:13:58;;;;;;;;;41.00;31.00;;;;;;;;5049536;28;8864;-67
2023/02/12 01:16:24;;;;;;;;;40.75;33.00;;;;;;;;5049415;28;8801;-67
2023/02/12 01:18:50;;;;;;;;;28.00;24.00;;;;;;;;5049250;28;8819;-67
2023/02/12 01:21:17;;;;;;;;;44.00;37.00;;;;;;;;5049207;28;8823;-66
2023/02/12 01:23:42;;;;;;;;;40.25;34.25;;;;;;;;5049217;28;8801;-67
2023/02/12 01:26:09;;;;;;;;;38.00;30.00;;;;;;;;5049365;28;8825;-65
2023/02/12 01:28:35;;;;;;;;;42.00;34.25;;;;;;;;5049423;28;8773;-67
2023/02/12 01:31:01;;;;;;;;;33.75;30.25;;;;;;;;5049303;28;8770;-67
2023/02/12 01:33:26;;;;;;;;;39.25;34.50;;;;;;;;5049229;28;8884;-65
2023/02/12 01:35:51;;;;;;;;;34.75;32.50;;;;;;;;5049388;28;8824;-65
2023/02/12 01:38:16;;;;;;;;;31.25;27.50;;;;;;;;5049559;28;9528;-65
2023/02/12 01:40:42;;;;;;;;;35.25;31.50;;;;;;;;5049539;28;8789;-66
2023/02/12 01:43:11;;;;;;;;;38.75;30.25;;;;;;;;5049406;28;8820;-66
2023/02/12 01:45:44;;;;;;;;;38.50;33.25;;;;;;;;5049588;28;8812;-67
2023/02/12 01:48:09;;;;;;;;;36.75;33.25;;;;;;;;5049595;28;8829;-66
2023/02/12 01:50:35;;;;;;;;;32.25;29.00;;;;;;;;5050979;28;8920;-67
2023/02/12 01:53:00;;;;;;;;;35.00;30.00;;;;;;;;5053949;28;8804;-66
2023/02/12 01:55:26;;;;;;;;;34.25;29.00;;;;;;;;5049339;28;8817;-66
2023/02/12 01:57:51;;;;;;;;;29.25;25.25;;;;;;;;5049242;28;8975;-67
2023/02/12 02:00:18;;;;;;;;;33.00;28.50;;;;;;;;5049118;28;8812;-67
2023/02/12 02:02:46;;;;;;;;;29.50;26.75;;;;;;;;5051474;28;8809;-67
2023/02/12 02:05:14;;;;;;;;;34.50;27.25;;;;;;;;5053130;28;8836;-67
2023/02/12 02:07:40;;;;;;;;;28.50;26.25;;;;;;;;5052895;28;8866;-66
2023/02/12 02:10:07;;;;;;;;;30.50;28.75;;;;;;;;5052867;28;8804;-66
2023/02/12 02:15:16;;;;;;;;;30.00;24.75;;;;;;;;5052712;28;8821;-67
2023/02/12 02:18:05;;;;;;;;;35.50;33.75;;;;;;;;5052965;28;8855;-67
2023/02/12 02:20:41;;;;;;;;;33.50;31.00;;;;;;;;5052582;28;8808;-67
2023/02/12 02:23:06;;;;;;;;;27.75;27.50;;;;;;;;5052877;28;8800;-68
2023/02/12 02:25:50;;;;;;;;;31.75;29.25;;;;;;;;5052474;28;8932;-67
2023/02/12 02:28:24;;;;;;;;;26.00;23.50;;;;;;;;5051381;28;8828;-67
2023/02/12 02:30:56;;;;;;;;;27.75;26.50;;;;;;;;5052522;28;8799;-66
2023/02/12 02:33:40;;;;;;;;;25.50;18.50;;;;;;;;5050991;28;8805;-67
2023/02/12 02:36:24;;;;;;;;;29.75;27.75;;;;;;;;5052329;28;8820;-66
2023/02/12 02:38:49;;;;;;;;;31.50;30.00;;;;;;;;5051009;28;8813;-65
2023/02/12 02:41:30;;;;;;;;;46.75;36.50;;;;;;;;5052189;28;8824;-66
2023/02/12 02:43:55;;;;;;;;;35.50;33.75;;;;;;;;5052181;28;8789;-67
2023/02/12 02:46:23;;;;;;;;;41.00;35.00;;;;;;;;5052244;28;8947;-66
2023/02/12 02:48:55;;;;;;;;;39.50;33.50;;;;;;;;5052198;28;8813;-67
2023/02/12 02:51:23;;;;;;;;;31.75;30.50;;;;;;;;5052055;28;9468;-66
2023/02/12 02:53:53;;;;;;;;;29.25;28.25;;;;;;;;5051839;28;8800;-67
2023/02/12 02:56:20;;;;;;;;;30.25;27.00;;;;;;;;5051925;28;8817;-66
2023/02/12 02:58:48;;;;;;;;;33.00;30.75;;;;;;;;5050719;28;8828;-66
2023/02/12 03:01:17;;;;;;;;;36.75;33.00;;;;;;;;5052257;28;9534;-67
2023/02/12 03:04:03;;;;;;;;;34.00;30.00;;;;;;;;5051975;28;8782;-67
2023/02/12 03:06:43;;;;;;;;;27.50;25.25;;;;;;;;5051776;28;8820;-66
2023/02/12 03:09:16;;;;;;;;;31.25;27.00;;;;;;;;5051946;28;8824;-66
2023/02/12 03:11:41;;;;;;;;;30.75;26.00;;;;;;;;5051429;28;8793;-66
2023/02/12 03:14:12;;;;;;;;;38.25;31.50;;;;;;;;5051919;28;8944;-66
2023/02/12 03:16:52;;;;;;;;;39.75;34.50;;;;;;;;5051530;28;8823;-66
2023/02/12 03:19:25;;;;;;;;;34.00;33.50;;;;;;;;5051679;28;8789;-66
2023/02/12 03:21:53;;;;;;;;;37.25;34.50;;;;;;;;5051752;28;8812;-66
2023/02/12 03:24:25;;;;;;;;;33.50;28.00;;;;;;;;5051592;28;8839;-67
2023/02/12 03:27:09;;;;;;;;;36.50;32.25;;;;;;;;5051429;28;9640;-67
2023/02/12 03:29:34;;;;;;;;;36.00;32.50;;;;;;;;5051496;28;8797;-67
2023/02/12 03:32:08;;;;;;;;;31.25;29.25;;;;;;;;5051319;28;8876;-67
2023/02/12 03:34:46;;;;;;;;;39.25;33.00;;;;;;;;5051370;28;9507;-66
2023/02/12 03:37:25;;;;;;;;;38.50;32.00;;;;;;;;5049926;28;9548;-66
2023/02/12 03:39:57;;;;;;;;;34.00;28.00;;;;;;;;5051169;28;8872;-65
2023/02/12 03:42:28;;;;;;;;;32.50;27.50;;;;;;;;5050955;28;8777;-65
2023/02/12 03:45:22;;;;;;;;;37.25;31.00;;;;;;;;5051148;28;9631;-66
2023/02/12 03:47:52;;;;;;;;;35.75;32.75;;;;;;;;4989312;28;8943;-65
2023/02/12 03:50:20;;;;;;;;;42.00;37.75;;;;;;;;4989467;28;9515;-67
2023/02/12 03:52:46;;;;;;;;;42.25;35.00;;;;;;;;4989088;28;9538;-65
2023/02/12 03:55:12;;;;;;;;;80.75;60.00;;;;;;;;4989276;28;8820;-65
2023/02/12 03:57:39;;;;;;;;;38.50;32.00;;;;;;;;4988976;28;8801;-65
2023/02/12 04:00:07;;;;;;;;;43.50;39.50;;;;;;;;4988869;28;8792;-66
2023/02/12 04:02:33;;;;;;;;;42.25;35.00;;;;;;;;4988463;28;8833;-65
2023/02/12 04:05:03;;;;;;;;;37.25;31.00;;;;;;;;4989085;28;8879;-65
2023/02/12 04:07:28;;;;;;;;;34.50;28.75;;;;;;;;4991749;28;8807;-66
2023/02/12 04:09:54;;;;;;;;;38.00;34.50;;;;;;;;4988866;28;8801;-65
2023/02/12 04:12:22;;;;;;;;;38.50;34.25;;;;;;;;4989008;28;8804;-66
2023/02/12 04:14:53;;;;;;;;;37.25;35.25;;;;;;;;4988374;28;8847;-67
2023/02/12 04:17:45;;;;;;;;;34.00;25.00;;;;;;;;4988351;28;8805;-65
2023/02/12 04:20:10;;;;;;;;;38.00;33.00;;;;;;;;4988846;28;8785;-65
2023/02/12 04:22:43;;;;;;;;;32.50;30.75;;;;;;;;4988467;28;9546;-65
2023/02/12 04:25:15;;;;;;;;;21.00;17.00;;;;;;;;5043184;28;8817;-65
2023/02/12 04:27:48;;;;;;;;;36.00;30.00;;;;;;;;5050076;28;8793;-65
2023/02/12 04:30:22;;;;;;;;;33.75;28.00;;;;;;;;5050419;28;9464;-65
2023/02/12 04:32:51;;;;;;;;;39.50;32.50;;;;;;;;5048695;28;8812;-65
2023/02/12 04:35:30;;;;;;;;;34.25;33.00;;;;;;;;5049898;28;8829;-66
2023/02/12 04:38:08;;;;;;;;;37.75;33.25;;;;;;;;5050130;28;8800;-65
2023/02/12 04:40:35;;;;;;;;;40.50;32.50;;;;;;;;5049976;28;8800;-66
2023/02/12 04:43:00;;;;;;;;;37.00;30.00;;;;;;;;5049908;28;8796;-65
2023/02/12 04:45:27;;;;;;;;;37.00;30.00;;;;;;;;5049744;28;8821;-65
2023/02/12 04:47:53;;;;;;;;;35.50;32.50;;;;;;;;5049762;28;8809;-65
2023/02/12 04:50:18;;;;;;;;;35.25;31.50;;;;;;;;5049747;28;9006;-66
2023/02/12 04:52:43;;;;;;;;;33.75;28.00;;;;;;;;5049893;28;8785;-66
2023/02/12 04:55:09;;;;;;;;;28.50;25.50;;;;;;;;5049682;28;8809;-66
2023/02/12 04:57:34;;;;;;;;;36.50;30.00;;;;;;;;5049890;28;8794;-66
2023/02/12 05:00:00;;;;;;;;;25.50;23.00;;;;;;;;5049964;28;8812;-64
2023/02/12 05:02:25;;;;;;;;;27.25;23.00;;;;;;;;5049574;28;8789;-65
2023/02/12 05:04:50;;;;;;;;;37.00;33.50;;;;;;;;5049563;28;8797;-66
2023/02/12 05:07:15;;;;;;;;;37.25;31.00;;;;;;;;5049341;28;8923;-66
2023/02/12 05:09:41;;;;;;;;;39.50;34.00;;;;;;;;5049669;28;8824;-66
2023/02/12 05:12:06;;;;;;;;;34.25;30.00;;;;;;;;5049872;28;8813;-65
2023/02/12 05:14:31;;;;;;;;;35.00;31.00;;;;;;;;5049166;28;8836;-66
2023/02/12 05:16:57;;;;;;;;;28.50;26.50;;;;;;;;5049348;28;8827;-66
2023/02/12 05:19:22;;;;;;;;;39.75;31.00;;;;;;;;5047650;28;8839;-66
2023/02/12 05:21:48;;;;;;;;;34.50;24.75;;;;;;;;5047560;28;8825;-66
2023/02/12 05:24:14;;;;;;;;;41.00;38.75;;;;;;;;5047849;28;8798;-65
2023/02/12 05:26:39;;;;;;;;;38.25;33.50;;;;;;;;5049099;28;8909;-66
2023/02/12 05:29:04;;;;;;;;;33.75;31.00;;;;;;;;5049248;28;8811;-66
2023/02/12 05:31:30;;;;;;;;;34.25;32.50;;;;;;;;5047496;28;8843;-65
2023/02/12 05:33:55;;;;;;;;;50.25;33.25;;;;;;;;5048825;28;8817;-65
2023/02/12 05:36:21;;;;;;;;;44.25;35.00;;;;;;;;5050578;28;9030;-66
2023/02/12 05:38:47;;;;;;;;;39.50;36.00;;;;;;;;5053091;28;8901;-65
2023/02/12 05:41:17;;;;;;;;;33.50;30.75;;;;;;;;5053198;28;8805;-66
2023/02/12 05:43:43;;;;;;;;;37.50;30.75;;;;;;;;5053283;28;8803;-66
2023/02/12 05:46:09;;;;;;;;;31.00;27.50;;;;;;;;5052964;28;8908;-65
2023/02/12 05:48:35;;;;;;;;;31.25;26.75;;;;;;;;5085176;28;8820;-65
2023/02/12 05:51:03;;;;;;;;;26.00;24.25;;;;;;;;5051293;28;8829;-66
2023/02/12 05:53:29;;;;;;;;;38.75;31.75;;;;;;;;5053042;28;8816;-65
2023/02/12 05:55:54;;;;;;;;;39.25;36.00;;;;;;;;5052804;28;9606;-65
2023/02/12 05:58:19;;;;;;;;;31.25;26.50;;;;;;;;5052961;28;8820;-65
2023/02/12 06:00:44;;;;;;;;;28.00;27.50;;;;;;;;5052371;28;8837;-66
2023/02/12 06:03:10;;;;;;;;;30.75;30.00;;;;;;;;5052603;28;9038;-66
2023/02/12 06:05:35;;;;;;;;;32.25;27.25;;;;;;;;5084617;28;8832;-65
2023/02/12 06:08:00;;;;;;;;;20.75;19.50;;;;;;;;5052730;28;8809;-66
2023/02/12 06:10:25;;;;;;;;;32.75;28.00;;;;;;;;5052496;28;8947;-66
2023/02/12 07:42:31;;;;;;;;;44.75;37.50;;;;;;;;5103373;27;14279;-62
2023/02/12 07:44:56;;;;;;;;;33.00;28.00;;;;;;;;5104304;28;8816;-63
2023/02/12 07:47:22;;;;;;;;;23.50;21.00;;;;;;;;5015629;27;10684;-63
2023/02/12 07:49:47;;;;;;;;;26.00;24.75;;;;;;;;5039882;28;9529;-63
2023/02/12 07:52:12;;;;;;;;;27.00;25.50;;;;;;;;5027406;28;8917;-64
2023/02/12 07:54:37;;;;;;;;;;;;;;;;;;5032288;28;8830;-64
2023/02/12 07:57:03;;;;;;;;;41.20;32.80;;;;;;;;5055042;28;8807;-64
2023/02/12 07:59:28;;;;;;;;;;;;;;;;;;5058814;28;8944;-64
2023/02/12 08:01:53;;;;;;;;;;;;;;;;;;5053174;28;7541;-64
2023/02/12 08:04:18;;;;;;;;;;;;;;;;;;5053506;28;7545;-64
2023/02/12 08:06:43;;;;;;;;;;;;;;;;;;5056434;28;7532;-65
2023/02/12 08:09:08;;;;;;;;;;;;;;;;;;5057755;28;7611;-64
2023/02/12 08:11:34;;;;;;;;;;;;;;;;;;5056414;28;7533;-63
2023/02/12 08:13:59;;;;;;;;;;;;;;;;;;5056920;28;7532;-65
2023/02/12 08:16:24;;;;;;;;;;;;;;;;;;5057815;28;7533;-64
2023/02/12 08:18:49;;;;;;;;;;;;;;;;;;5057223;28;7531;-65
2023/02/12 08:21:14;;;;;;;;;;;;;;;;;;5067728;28;7520;-65
2023/02/12 08:23:40;;;;;;;;;;;;;;;;;;5067280;28;7979;-66
2023/02/12 08:26:05;;;;;;;;;;;;;;;;;;5065997;28;7590;-65
2023/02/12 08:28:30;;;;;;;;;;;;;;;;;;5057139;28;7793;-66
2023/02/12 08:30:55;;;;;;;;;;;;;;;;;;5056265;28;7545;-67
2023/02/12 08:33:20;;;;;;;;;;;;;;;;;;5046069;28;7562;-67
2023/02/12 08:35:45;;;;;;;;;;;;;;;;;;5039997;28;7536;-61
2023/02/12 08:38:10;;;;;;;;;;;;;;;;;;5046970;28;7594;-61
2023/02/12 08:40:35;;;;;;;;;;;;;;;;;;5046616;28;7525;-63
2023/02/12 08:43:00;;;;;;;;;;;;;;;;;;5046980;28;7631;-63
2023/02/12 08:45:26;;;;;;;;;;;;;;;;;;5045489;28;7553;-63
2023/02/12 08:47:51;;;;;;;;;;;;;;;;;;5045779;28;7548;-68
2023/02/12 08:50:16;;;;;;;;;;;;;;;;;;5045613;28;7536;-68
2023/02/12 08:52:41;;;;;;;;;;;;;;;;;;5040141;28;7544;-67
2023/02/12 08:55:06;;;;;;;;;;;;;;;;;;5033946;28;7529;-66
2023/02/12 08:57:33;;;;;;;;;;;;;;;;;;5033682;28;7632;-65
2023/02/12 08:59:58;;;;;;;;;;;;;;;;;;5033630;28;7636;-66
2023/02/12 09:02:23;;;;;;;;;;;;;;;;;;5033562;28;7529;-68
2023/02/12 09:04:48;;;;;;;;;;;;;;;;;;5036004;28;7585;-68
2023/02/12 09:07:13;;;;;;;;;;;;;;;;;;5041507;28;7529;-67
2023/02/12 09:09:38;;;;;;;;;;;;;;;;;;5033533;28;7521;-66
2023/02/12 09:12:04;;;;;;;;;;;;;;;;;;5036264;28;8077;-67
2023/02/12 09:14:29;;;;;;;;;;;;;;;;;;5040034;28;7533;-69
2023/02/12 09:16:56;;;;;;;;;;;;;;;;;;5053339;28;7536;-68
2023/02/12 09:19:21;;;;;;;;;;;;;;;;;;5038809;28;7957;-67
2023/02/12 09:21:46;;;;;;;;;;;;;;;;;;5033313;28;8025;-66
2023/02/12 09:24:11;;;;;;;;;;;;;;;;;;5033270;28;7540;-66
2023/02/12 09:26:36;;;;;;;;;;;;;;;;;;5031949;28;7514;-67
2023/02/12 09:29:01;;;;;;;;;;;;;;;;;;5031896;28;7533;-70
2023/02/12 09:31:26;;;;;;;;;;;;;;;;;;5033654;28;7521;-69
2023/02/12 09:33:52;;;;;;;;;;;;;;;;;;5039027;28;7548;-72
2023/02/12 09:36:17;;;;;;;;;;;;;;;;;;5039548;28;7624;-72
2023/02/12 09:38:42;;;;;;;;;;;;;;;;;;5043726;28;7521;-71
2023/02/12 09:41:07;;;;;;;;;;;;;;;;;;5042854;28;8293;-69
2023/02/12 09:43:32;;;;;;;;;;;;;;;;;;5049993;28;7532;-68
2023/02/12 09:45:57;;;;;;;;;;;;;;;;;;5053145;28;7529;-68
2023/02/12 09:48:22;;;;;;;;;;;;;;;;;;5046097;28;7521;-70
2023/02/12 09:50:47;;;;;;;;;;;;;;;;;;5032739;28;7525;-70
2023/02/12 09:53:12;;;;;;;;;;;;;;;;;;5033132;28;7584;-66
2023/02/12 09:55:38;;;;;;;;;;;;;;;;;;5032801;28;7551;-66
2023/02/12 09:58:03;;;;;;;;;;;;;;;;;;5032745;28;7514;-68
2023/02/12 10:00:30;;;;;;;;;;;;;;;;;;5032548;28;7540;-67
2023/02/12 10:02:55;;;;;;;;;;;;;;;;;;5032506;28;7525;-66
2023/02/12 10:05:20;;;;;;;;;;;;;;;;;;5031932;28;7528;-67
2023/02/12 10:07:45;;;;;;;;;;;;;;;;;;5032492;28;7525;-67
2023/02/12 10:10:10;;;;;;;;;;;;;;;;;;5032224;28;7631;-68
2023/02/12 10:12:35;;;;;;;;;;;;;;;;;;5032869;28;7525;-66
2023/02/12 10:15:00;;;;;;;;;;;;;;;;;;5032441;28;7537;-69
2023/02/12 10:17:25;;;;;;;;;;;;;;;;;;5032262;28;7571;-66
2023/02/12 10:19:51;;;;;;;;;;;;;;;;;;5016548;28;7552;-67
2023/02/12 10:22:16;;;;;;;;;;;;;;;;;;5029732;28;7551;-66
2023/02/12 10:24:41;;;;;;;;;;;;;;;;;;5031670;28;7631;-67
2023/02/12 10:27:06;;;;;;;;;;;;;;;;;;5040679;28;7537;-66
2023/02/12 10:29:31;;;;;;;;;;;;;;;;;;5039278;28;7565;-66
2023/02/12 10:31:56;;;;;;;;;;;;;;;;;;5038800;28;7525;-66
2023/02/12 10:34:21;;;;;;;;;;;;;;;;;;5038306;28;7539;-67
2023/02/12 10:36:46;;;;;;;;;;;;;;;;;;5036131;28;7521;-67
2023/02/12 10:39:12;;;;;;;;;;;;;;;;;;5030781;28;7537;-67
2023/02/12 10:41:37;;;;;;;;;;;;;;;;;;5030020;28;7541;-67
2023/02/12 10:44:02;;;;;;;;;;;;;;;;;;5030297;28;7541;-65
2023/02/12 10:46:27;;;;;;;;;;;;;;;;;;5030931;28;7529;-66
2023/02/12 10:48:57;;;;;;;;;;;;;;;;;;5029203;28;7521;-65
2023/02/12 10:51:22;;;;;;;;;;;;;;;;;;5029298;28;8072;-67
2023/02/12 10:53:48;;;;;;;;;;;;;;;;;;5030776;28;8032;-66
2023/02/12 10:56:13;;;;;;;;;;;;;;;;;;5031601;28;7529;-67
2023/02/12 10:58:38;;;;;;;;;;;;;;;;;;5031259;28;7952;-67
2023/02/12 11:01:03;;;;;;;;;;;;;;;;;;5029653;28;7579;-66
2023/02/12 11:03:28;;;;;;;;;;;;;;;;;;5009838;28;10986;-64
2023/02/12 11:07:44;;;;;;;;;;;;;;;;;;5109855;27;9507;-66
2023/02/12 11:10:09;;;;;;;;;;;;;;;;;;5109314;28;7550;-68
2023/02/12 11:12:38;;;;;;;;;;;;;;;;;;5108894;28;7951;-69
2023/02/12 11:17:36;;;;;;;;;58.20;48.40;;;;;;;;4992849;27;13509;-66
2023/02/12 11:20:18;;;;;;;;;61.00;49.80;;;;;;;;4973760;28;14485;-66
2023/02/12 11:23:00;;;;;;;;;50.50;39.50;;;;;;;;5021040;28;13594;-66
2023/02/12 11:25:30;;;;;;;;;57.00;45.60;;;;;;;;5022844;28;13658;-64
2023/02/12 11:28:11;;;;;;;;;42.75;36.25;;;;;;;;5023122;28;13613;-65
2023/02/12 11:30:47;;;;;;;;;50.00;43.00;;;;;;;;5022288;28;14439;-66
2023/02/12 11:33:31;;;;;;;;;47.25;38.00;;;;;;;;5021164;28;13731;-65
2023/02/12 11:35:58;;;;;;;;;47.75;39.25;;;;;;;;5025995;28;10780;-65
2023/02/12 11:38:26;;;;;;;;;44.75;37.25;;;;;;;;5025537;28;10891;-68
2023/02/12 11:40:57;;;;;;;;;47.75;41.25;;;;;;;;5025800;28;11314;-68
2023/02/12 11:43:23;;;;;;;;;45.75;40.50;;;;;;;;5025803;28;11586;-65
2023/02/12 11:45:51;;;;;;;;;47.00;41.75;;;;;;;;5025236;28;11576;-66
2023/02/12 11:48:19;;;;;;;;;52.50;46.00;;;;;;;;5024058;28;11613;-65
2023/02/12 11:50:50;;;;;;;;;47.75;41.50;;;;;;;;5024514;28;11562;-65
2023/02/12 11:53:23;;;;;;;;;47.75;42.25;;;;;;;;5024454;28;11582;-66
2023/02/12 11:55:54;;;;;;;;;46.25;41.00;;;;;;;;5024510;28;11560;-65
2023/02/12 11:58:21;;;;;;;;;46.50;42.25;;;;;;;;5024319;28;11562;-65
2023/02/12 12:00:55;;;;;;;;;47.50;43.50;;;;;;;;5024871;28;11658;-65
2023/02/12 12:03:39;;;;;;;;;48.25;43.00;;;;;;;;5025573;28;11656;-65
2023/02/12 12:06:07;;;;;;;;;49.33;45.00;;;;;;;;5025671;28;11557;-65
2023/02/12 12:08:38;;;;;;;;;47.67;44.00;;;;;;;;5025753;28;11625;-64
2023/02/12 12:11:10;;;;;;;;;47.50;43.25;;;;;;;;5025603;28;11522;-65
2023/02/12 12:13:43;;;;;;;;;47.50;41.25;;;;;;;;5026059;28;11540;-65
2023/02/12 12:19:51;;;;;;;;;37.50;35.00;;;;;;;;5021253;28;11583;-65
2023/02/12 12:22:52;;;;;;;;;36.33;34.00;;;;;;;;5024101;28;11590;-65
2023/02/12 12:25:29;;;;;;;;;37.00;34.00;;;;;;;;4983761;28;11553;-65
2023/02/12 12:28:07;;;;;;;;;34.67;34.67;;;;;;;;4975563;28;12442;-65
2023/02/12 12:30:37;;;;;;;;;41.67;35.33;;;;;;;;4970731;28;11734;-65
2023/02/12 12:33:05;;;;;;;;;38.00;35.00;;;;;;;;4970442;28;11538;-65
2023/02/12 12:35:48;;;;;;;;;46.33;34.00;;;;;;;;4970103;28;11576;-65
2023/02/12 12:38:18;;;;;;;;;35.00;31.00;;;;;;;;4970427;28;11571;-65
2023/02/12 12:40:54;;;;;;;;;40.00;32.50;;;;;;;;4970662;28;11515;-65
2023/02/12 12:43:34;;;;;;;;;32.50;29.25;;;;;;;;4970668;28;11671;-66
2023/02/12 12:46:00;;;;;;;;;32.00;26.75;;;;;;;;4970683;28;11594;-64
2023/02/12 12:48:34;;;;;;;;;36.75;32.25;;;;;;;;4970412;28;11521;-66
2023/02/12 12:51:02;;;;;;;;;30.00;29.00;;;;;;;;4970505;28;8993;-65
2023/02/12 12:53:45;;;;;;;;;26.25;23.25;;;;;;;;4970607;28;11599;-65
2023/02/12 12:56:22;;;;;;;;;31.75;27.75;;;;;;;;4969854;28;11635;-65
2023/02/12 12:59:06;;;;;;;;;25.75;21.50;;;;;;;;4977173;28;11549;-66
2023/02/12 13:01:32;;;;;;;;;26.25;24.00;;;;;;;;4992361;28;12311;-65
2023/02/12 13:03:57;;;;;;;;;26.75;22.00;;;;;;;;4992024;28;11643;-65
2023/02/12 13:06:40;;;;;;;;;28.75;25.00;;;;;;;;4992182;28;8815;-64
2023/02/12 13:09:21;;;;;;;;;30.75;24.75;;;;;;;;4991110;28;8924;-65
2023/02/12 13:11:53;;;;;;;;;36.67;30.00;;;;;;;;4991770;28;11546;-65
2023/02/12 13:14:26;;;;;;;;;34.67;26.33;;;;;;;;4992752;28;9633;-65
2023/02/12 13:17:24;;;;;;;;;24.25;20.75;;;;;;;;4991679;28;11622;-65
2023/02/12 13:19:54;;;;;;;;;30.33;27.67;;;;;;;;4910693;29;11675;-65
2023/02/12 13:22:19;;;;;;;;;25.33;23.67;;;;;;;;4912626;29;11636;-65
2023/02/12 13:24:54;;;;;;;;;26.67;26.00;;;;;;;;4912543;29;11643;-65
2023/02/12 13:27:20;;;;;;;;;22.25;19.00;;;;;;;;4912855;29;8840;-65
2023/02/12 13:29:53;;;;;;;;;23.00;19.75;;;;;;;;4912152;29;11640;-66
2023/02/12 13:32:31;;;;;;;;;17.00;17.00;;;;;;;;4912665;29;11635;-66
2023/02/12 13:34:58;;;;;;;;;21.75;18.75;;;;;;;;4912360;29;11767;-66
2023/02/12 13:37:44;;;;;;;;;21.75;19.75;;;;;;;;4912060;29;11674;-67
2023/02/12 13:40:14;;;;;;;;;20.75;18.75;;;;;;;;4911310;29;11734;-64
2023/02/12 13:42:44;;;;;;;;;31.75;20.00;;;;;;;;4912293;29;11649;-65
2023/02/12 13:45:10;;;;;;;;;18.00;18.00;;;;;;;;4911492;29;11792;-65
2023/02/12 13:47:52;;;;;;;;;27.75;19.50;;;;;;;;4912025;29;11741;-65
2023/02/12 13:50:35;;;;;;;;;27.25;23.25;;;;;;;;4912033;29;8831;-66
2023/02/12 13:53:18;;;;;;;;;25.75;25.00;;;;;;;;4896185;29;11678;-64
2023/02/12 13:55:56;;;;;;;;;28.00;23.00;;;;;;;;4973688;28;11572;-65
2023/02/12 13:58:30;;;;;;;;;23.33;23.33;;;;;;;;5010712;28;11548;-65
2023/02/12 14:00:56;;;;;;;;;25.33;22.67;;;;;;;;5010563;28;11547;-65
2023/02/12 14:03:25;;;;;;;;;21.00;20.00;;;;;;;;5008443;28;11700;-65
2023/02/12 14:06:09;;;;;;;;;23.25;20.75;;;;;;;;5010629;28;9749;-66
2023/02/12 14:08:35;;;;;;;;;23.00;19.00;;;;;;;;5010516;28;11607;-66
2023/02/12 14:11:06;;;;;;;;;27.25;24.75;;;;;;;;5008721;28;11758;-65
2023/02/12 14:13:35;;;;;;;;;23.33;20.67;;;;;;;;5010684;28;11520;-65
2023/02/12 14:16:17;;;;;;;;;29.33;28.33;;;;;;;;5010170;28;11563;-65
2023/02/12 14:18:43;;;;;;;;;31.00;26.67;;;;;;;;5009943;28;11590;-65
2023/02/12 14:21:08;;;;;;;;;28.00;25.33;;;;;;;;5009649;28;11705;-65
2023/02/12 14:23:34;;;;;;;;;27.00;27.00;;;;;;;;5010135;28;8865;-64
2023/02/12 14:26:09;;;;;;;;;36.33;29.33;;;;;;;;5008670;28;8830;-65
2023/02/12 14:28:53;;;;;;;;;30.67;26.67;;;;;;;;5010314;28;9572;-65
2023/02/12 14:31:19;;;;;;;;;30.67;26.67;;;;;;;;5009831;28;11538;-65
2023/02/12 14:33:45;;;;;;;;;26.33;26.00;;;;;;;;5009800;28;11553;-65
2023/02/12 14:36:15;;;;;;;;;32.33;29.67;;;;;;;;5009934;28;8827;-65
2023/02/12 14:38:40;;;;;;;;;30.67;30.00;;;;;;;;5009515;28;11699;-65
2023/02/12 14:41:32;;;;;;;;;33.00;32.00;;;;;;;;5009657;28;11586;-64
2023/02/12 14:44:29;;;;;;;;;34.33;28.00;;;;;;;;5009751;28;8909;-65
2023/02/12 14:47:11;;;;;;;;;36.33;29.33;;;;;;;;5001124;28;11571;-65
2023/02/12 14:49:43;;;;;;;;;20.75;19.25;;;;;;;;5009293;28;11558;-65
2023/02/12 14:52:14;;;;;;;;;31.25;27.50;;;;;;;;5009556;28;11560;-65
2023/02/12 14:55:12;;;;;;;;;29.67;26.67;;;;;;;;5009498;28;11560;-66
2023/02/12 14:57:39;;;;;;;;;27.67;24.33;;;;;;;;4986323;28;11569;-65
2023/02/12 15:00:16;;;;;;;;;31.00;27.00;;;;;;;;5009511;28;11740;-65
2023/02/12 15:02:50;;;;;;;;;31.33;24.00;;;;;;;;5009537;28;11745;-65
2023/02/12 15:05:19;;;;;;;;;29.33;27.00;;;;;;;;5009442;28;11535;-65
2023/02/12 15:07:49;;;;;;;;;31.00;26.00;;;;;;;;5009331;28;11524;-65
2023/02/12 15:10:20;;;;;;;;;23.50;23.25;;;;;;;;5009289;28;11555;-64
2023/02/12 15:12:50;;;;;;;;;27.75;24.25;;;;;;;;5009860;28;11555;-65
2023/02/12 15:15:29;;;;;;;;;22.50;22.25;;;;;;;;5008600;28;11597;-65
2023/02/12 15:18:02;;;;;;;;;27.50;22.75;;;;;;;;5009506;28;11648;-65
2023/02/12 15:20:34;;;;;;;;;27.25;27.00;;;;;;;;5009240;28;11707;-65
2023/02/12 15:22:59;;;;;;;;;30.00;27.50;;;;;;;;5009348;28;11575;-65
2023/02/12 15:25:24;;;;;;;;;24.25;21.50;;;;;;;;5009148;28;11546;-65
2023/02/12 15:27:52;;;;;;;;;27.50;24.00;;;;;;;;5009149;28;9525;-66
2023/02/12 15:30:19;;;;;;;;;33.75;28.00;;;;;;;;5008059;28;8806;-66
2023/02/12 15:32:45;;;;;;;;;27.00;25.75;;;;;;;;5008901;28;11565;-64
2023/02/12 15:35:31;;;;;;;;;26.50;26.00;;;;;;;;5008905;28;11561;-65
2023/02/12 15:37:59;;;;;;;;;27.50;26.00;;;;;;;;5008691;28;11631;-63
2023/02/12 15:40:24;;;;;;;;;34.25;27.50;;;;;;;;5008569;28;11553;-64
2023/02/12 15:42:54;;;;;;;;;30.00;28.50;;;;;;;;5009181;28;11727;-65
2023/02/12 15:45:21;;;;;;;;;33.00;29.00;;;;;;;;5009461;28;8798;-65
2023/02/12 15:47:58;;;;;;;;;27.50;23.00;;;;;;;;5009253;28;11550;-66
2023/02/12 15:50:24;;;;;;;;;34.75;29.75;;;;;;;;5009006;28;11557;-65
2023/02/12 15:52:49;;;;;;;;;31.75;28.00;;;;;;;;5001953;28;11602;-65
2023/02/12 15:55:36;;;;;;;;;32.25;29.25;;;;;;;;4999846;28;8814;-65
2023/02/12 15:58:02;;;;;;;;;33.75;24.50;;;;;;;;4999061;28;8791;-65
2023/02/12 16:00:33;;;;;;;;;26.00;21.25;;;;;;;;4998974;28;11644;-65
2023/02/12 16:02:58;;;;;;;;;29.00;25.50;;;;;;;;4999423;28;8818;-66
2023/02/12 16:05:24;;;;;;;;;32.50;30.50;;;;;;;;5001951;28;11677;-66
2023/02/12 16:07:50;;;;;;;;;36.33;30.67;;;;;;;;5000680;28;8825;-66
2023/02/12 16:10:17;;;;;;;;;31.00;28.00;;;;;;;;5002333;28;11589;-66
2023/02/12 16:12:43;;;;;;;;;31.25;28.00;;;;;;;;5002135;28;8816;-65
2023/02/12 16:15:25;;;;;;;;;41.67;31.67;;;;;;;;5000357;28;12320;-66
2023/02/12 16:17:50;;;;;;;;;27.00;19.00;;;;;;;;5001955;28;8829;-66
2023/02/12 16:20:18;;;;;;;;;37.33;33.33;;;;;;;;5001605;28;11573;-65
2023/02/12 16:22:45;;;;;;;;;37.67;29.33;;;;;;;;5001979;28;9543;-65
2023/02/12 16:25:13;;;;;;;;;34.33;31.00;;;;;;;;5000101;28;11591;-66
2023/02/12 16:27:39;;;;;;;;;37.00;31.67;;;;;;;;5001351;28;11592;-65
2023/02/12 16:30:05;;;;;;;;;31.00;27.00;;;;;;;;5001754;28;11589;-65
2023/02/12 16:32:41;;;;;;;;;34.75;31.00;;;;;;;;4999737;28;8915;-66
2023/02/12 16:35:09;;;;;;;;;27.25;20.75;;;;;;;;4999964;28;11694;-66
2023/02/12 16:37:37;;;;;;;;;34.25;30.50;;;;;;;;5000076;28;11582;-65
2023/02/12 16:40:02;;;;;;;;;41.33;35.00;;;;;;;;5000522;28;11555;-65
2023/02/12 16:42:28;;;;;;;;;41.00;37.00;;;;;;;;5001844;28;11617;-65
2023/02/12 16:44:53;;;;;;;;;42.67;34.33;;;;;;;;5001824;28;8849;-66
2023/02/12 16:47:23;;;;;;;;;42.00;34.33;;;;;;;;5000540;28;8924;-66